createdAt,value
2023-05-05T00:00:34.164Z,86.28
2023-05-05T00:01:38.710Z,86.76
2023-05-05T00:02:42.687Z,86.59
2023-05-05T00:03:46.776Z,86.47
2023-05-05T00:04:50.484Z,86.46
2023-05-05T00:05:58.084Z,86.82
2023-05-05T00:07:01.473Z,86.75
2023-05-05T00:08:05.484Z,86.98
2023-05-05T00:09:08.987Z,86.86
2023-05-05T00:10:12.784Z,86.39
2023-05-05T00:11:16.422Z,86.09
2023-05-05T00:12:18.672Z,86.78
2023-05-05T00:13:22.081Z,87.62
2023-05-05T00:14:25.596Z,87.50
2023-05-05T00:15:27.938Z,87.80
2023-05-05T00:16:33.256Z,87.74
2023-05-05T00:17:36.867Z,87.79
2023-05-05T00:18:41.262Z,88.19
2023-05-05T00:19:43.521Z,88.10
2023-05-05T00:20:47.958Z,88.33
2023-05-05T00:21:52.314Z,88.86
2023-05-05T00:23:00.957Z,88.05
2023-05-05T00:24:05.686Z,87.71
2023-05-05T00:25:10.764Z,87.80
2023-05-05T00:26:31.081Z,88.03
2023-05-05T00:27:34.376Z,88.09
2023-05-05T00:28:40.268Z,87.71
2023-05-05T00:29:44.815Z,87.52
2023-05-05T00:30:49.310Z,87.19
2023-05-05T00:31:53.203Z,87.43
2023-05-05T00:32:58.360Z,88.01
2023-05-05T00:34:02.102Z,87.94
2023-05-05T00:35:06.245Z,87.99
2023-05-05T00:36:10.364Z,88.43
2023-05-05T00:37:13.862Z,88.66
2023-05-05T00:38:19.038Z,88.34
2023-05-05T00:39:22.438Z,87.88
2023-05-05T00:40:25.937Z,88.53
2023-05-05T00:41:30.610Z,88.55
2023-05-05T00:42:43.086Z,88.48
2023-05-05T00:43:48.056Z,87.97
2023-05-05T00:44:51.342Z,87.68
2023-05-05T00:46:02.559Z,87.86
2023-05-05T00:47:06.013Z,88.44
2023-05-05T00:48:10.022Z,89.04
2023-05-05T00:49:14.889Z,89.97
2023-05-05T00:50:24.439Z,90.10
2023-05-05T00:51:29.196Z,89.94
2023-05-05T00:52:33.426Z,90.45
2023-05-05T00:53:36.212Z,90.46
2023-05-05T00:54:40.760Z,90.54
2023-05-05T00:55:44.516Z,90.93
2023-05-05T00:56:48.707Z,91.46
2023-05-05T00:57:52.102Z,91.54
2023-05-05T00:58:55.197Z,92.78
2023-05-05T00:59:59.124Z,92.97
2023-05-05T01:01:02.460Z,93.36
2023-05-05T01:02:05.124Z,93.83
2023-05-05T01:03:08.652Z,94.34
2023-05-05T01:04:13.063Z,94.61
2023-05-05T01:05:19.040Z,93.84
2023-05-05T01:06:26.405Z,93.66
2023-05-05T01:07:35.226Z,93.51
2023-05-05T01:08:57.136Z,93.11
2023-05-05T01:10:19.690Z,93.16
2023-05-05T01:11:25.108Z,93.54
2023-05-05T01:12:47.371Z,93.23
2023-05-05T01:13:53.870Z,92.95
2023-05-05T01:15:12.777Z,93.84
2023-05-05T01:16:22.022Z,93.37
2023-05-05T01:17:26.860Z,93.57
2023-05-05T01:18:48.624Z,93.53
2023-05-05T01:19:57.771Z,93.68
2023-05-05T01:21:24.983Z,93.69
2023-05-05T01:22:30.040Z,93.75
2023-05-05T01:23:40.248Z,94.32
2023-05-05T01:24:51.069Z,94.50
2023-05-05T01:26:16.669Z,94.66
2023-05-05T01:27:21.662Z,94.78
2023-05-05T01:28:26.845Z,94.69
2023-05-05T01:29:48.960Z,94.13
2023-05-05T01:31:00.605Z,93.30
2023-05-05T01:32:07.862Z,92.58
2023-05-05T01:33:13.153Z,92.97
2023-05-05T01:34:17.479Z,92.80
2023-05-05T01:35:22.711Z,93.46
2023-05-05T01:36:27.738Z,93.55
2023-05-05T01:37:38.344Z,94.42
2023-05-05T01:38:43.309Z,94.28
2023-05-05T01:39:47.814Z,94.03
2023-05-05T01:40:52.932Z,93.90
2023-05-05T01:41:59.783Z,94.62
2023-05-05T01:43:09.664Z,94.28
2023-05-05T01:44:14.305Z,94.03
2023-05-05T01:45:19.580Z,93.72
2023-05-05T01:46:25.535Z,94.14
2023-05-05T01:47:30.204Z,96.07
2023-05-05T01:48:35.178Z,95.56
2023-05-05T01:49:39.040Z,95.02
2023-05-05T01:50:44.728Z,94.99
2023-05-05T01:51:49.897Z,94.21
2023-05-05T01:52:55.432Z,94.26
2023-05-05T01:54:00.556Z,94.11
2023-05-05T01:55:08.085Z,94.61
2023-05-05T01:56:13.141Z,95.07
2023-05-05T01:57:18.450Z,94.76
2023-05-05T01:58:21.912Z,94.82
2023-05-05T01:59:26.146Z,95.07
2023-05-05T02:00:31.403Z,94.91
2023-05-05T02:01:37.240Z,94.80
2023-05-05T02:02:43.093Z,96.25
2023-05-05T02:03:48.433Z,96.52
2023-05-05T02:04:56.413Z,95.83
2023-05-05T02:06:01.476Z,95.42
2023-05-05T02:07:07.077Z,94.64
2023-05-05T02:08:12.670Z,95.16
2023-05-05T02:09:17.219Z,95.38
2023-05-05T02:10:22.924Z,95.60
2023-05-05T02:11:28.657Z,95.35
2023-05-05T02:12:33.395Z,95.02
2023-05-05T02:13:38.616Z,95.67
2023-05-05T02:14:43.625Z,96.15
2023-05-05T02:15:47.894Z,96.90
2023-05-05T02:16:51.361Z,97.59
2023-05-05T02:17:55.015Z,98.22
2023-05-05T02:18:59.516Z,97.86
2023-05-05T02:20:04.599Z,97.10
2023-05-05T02:21:09.004Z,96.34
2023-05-05T02:22:14.661Z,96.81
2023-05-05T02:23:18.186Z,97.19
2023-05-05T02:24:21.543Z,98.32
2023-05-05T02:25:27.442Z,100.00
2023-05-05T02:26:31.936Z,100.00
2023-05-05T02:27:36.137Z,100.00
2023-05-05T02:28:44.381Z,100.00
2023-05-05T02:29:49.310Z,100.00
2023-05-05T02:30:54.693Z,100.00
2023-05-05T02:32:00.283Z,100.00
2023-05-05T02:33:07.089Z,100.00
2023-05-05T02:34:10.219Z,100.00
2023-05-05T02:35:16.341Z,100.00
2023-05-05T02:36:23.936Z,100.00
2023-05-05T02:37:32.922Z,100.00
2023-05-05T02:38:37.196Z,100.00
2023-05-05T02:40:58.823Z,100.00
2023-05-05T02:42:07.139Z,100.00
2023-05-05T02:43:12.040Z,100.00
2023-05-05T02:44:15.155Z,100.00
2023-05-05T02:45:19.895Z,100.00
2023-05-05T02:46:25.880Z,100.00
2023-05-05T02:47:32.514Z,100.00
2023-05-05T02:48:36.622Z,100.00
2023-05-05T02:49:40.021Z,100.00
2023-05-05T02:50:43.795Z,100.00
2023-05-05T02:51:51.049Z,100.00
2023-05-05T02:52:57.436Z,100.00
2023-05-05T02:54:04.802Z,100.00
2023-05-05T02:55:10.437Z,100.00
2023-05-05T02:56:18.081Z,100.00
2023-05-05T02:57:24.509Z,100.00
2023-05-05T02:58:33.962Z,100.00
2023-05-05T02:59:41.543Z,100.00
2023-05-05T03:00:50.164Z,100.00
2023-05-05T03:01:58.324Z,100.00
2023-05-05T03:03:11.598Z,100.00
2023-05-05T03:04:17.393Z,100.00
2023-05-05T03:05:24.558Z,100.00
2023-05-05T03:06:29.419Z,100.00
2023-05-05T03:07:34.897Z,100.00
2023-05-05T03:08:43.264Z,100.00
2023-05-05T03:09:49.016Z,100.00
2023-05-05T03:11:00.355Z,100.00
2023-05-05T03:12:08.470Z,100.00
2023-05-05T03:13:16.665Z,100.00
2023-05-05T03:14:22.255Z,100.00
2023-05-05T03:15:28.176Z,100.00
2023-05-05T03:16:32.280Z,100.00
2023-05-05T03:17:36.413Z,100.00
2023-05-05T03:18:41.277Z,100.00
2023-05-05T03:19:44.272Z,100.00
2023-05-05T03:20:48.185Z,100.00
2023-05-05T03:21:53.076Z,100.00
2023-05-05T03:22:56.576Z,100.00
2023-05-05T03:24:02.314Z,100.00
2023-05-05T03:25:06.389Z,100.00
2023-05-05T03:26:10.210Z,100.00
2023-05-05T03:27:17.486Z,100.00
2023-05-05T03:28:20.655Z,100.00
2023-05-05T03:29:24.378Z,100.00
2023-05-05T03:30:29.451Z,100.00
2023-05-05T03:31:33.414Z,100.00
2023-05-05T03:32:37.549Z,100.00
2023-05-05T03:33:41.011Z,100.00
2023-05-05T03:34:45.669Z,100.00
2023-05-05T03:35:50.056Z,100.00
2023-05-05T03:36:54.245Z,100.00
2023-05-05T03:37:58.105Z,100.00
2023-05-05T03:39:03.390Z,100.00
2023-05-05T03:40:09.903Z,100.00
2023-05-05T03:41:13.881Z,100.00
2023-05-05T03:42:17.726Z,100.00
2023-05-05T03:43:22.272Z,100.00
2023-05-05T03:44:25.253Z,100.00
2023-05-05T03:45:29.845Z,100.00
2023-05-05T03:46:33.616Z,100.00
2023-05-05T03:47:36.979Z,100.00
2023-05-05T03:48:41.694Z,100.00
2023-05-05T03:49:45.518Z,100.00
2023-05-05T03:50:49.196Z,100.00
2023-05-05T03:51:52.901Z,100.00
2023-05-05T03:52:59.394Z,100.00
2023-05-05T03:54:03.275Z,100.00
2023-05-05T03:55:08.732Z,100.00
2023-05-05T03:56:12.475Z,100.00
2023-05-05T03:57:15.869Z,100.00
2023-05-05T03:58:19.489Z,100.00
2023-05-05T03:59:22.366Z,100.00
2023-05-05T04:00:28.793Z,100.00
2023-05-05T04:01:34.471Z,100.00
2023-05-05T04:02:38.251Z,100.00
2023-05-05T04:03:42.121Z,100.00
2023-05-05T04:04:45.524Z,100.00
2023-05-05T04:05:50.526Z,100.00
2023-05-05T04:06:53.888Z,100.00
2023-05-05T04:07:59.447Z,100.00
2023-05-05T04:09:04.089Z,100.00
2023-05-05T04:10:08.660Z,100.00
2023-05-05T04:11:13.132Z,100.00
2023-05-05T04:12:17.073Z,100.00
2023-05-05T04:13:22.735Z,100.00
2023-05-05T04:14:26.353Z,100.00
2023-05-05T04:15:31.139Z,100.00
2023-05-05T04:16:34.542Z,99.82
2023-05-05T04:17:39.783Z,99.56
2023-05-05T04:18:43.213Z,97.72
2023-05-05T04:19:50.013Z,98.03
2023-05-05T04:20:56.954Z,97.23
2023-05-05T04:22:01.803Z,99.01
2023-05-05T04:23:06.943Z,98.85
2023-05-05T04:24:11.600Z,97.69
2023-05-05T04:25:15.617Z,97.88
2023-05-05T04:26:19.759Z,98.30
2023-05-05T04:27:23.348Z,97.52
2023-05-05T04:28:27.236Z,96.13
2023-05-05T04:29:30.577Z,96.78
2023-05-05T04:30:34.615Z,96.82
2023-05-05T04:31:40.095Z,96.28
2023-05-05T04:32:43.673Z,96.54
2023-05-05T04:33:47.428Z,96.23
2023-05-05T04:34:51.140Z,95.49
2023-05-05T04:35:57.211Z,95.89
2023-05-05T04:37:02.016Z,95.59
2023-05-05T04:38:05.928Z,96.28
2023-05-05T04:39:08.711Z,98.08
2023-05-05T04:40:12.939Z,97.93
2023-05-05T04:41:17.104Z,98.17
2023-05-05T04:42:21.102Z,97.79
2023-05-05T04:43:24.933Z,97.55
2023-05-05T04:44:28.638Z,96.79
2023-05-05T04:45:32.110Z,96.34
2023-05-05T04:46:36.035Z,96.49
2023-05-05T04:47:40.157Z,95.48
2023-05-05T04:48:43.283Z,95.06
2023-05-05T04:49:46.990Z,95.11
2023-05-05T04:50:53.258Z,95.46
2023-05-05T04:51:56.827Z,95.00
2023-05-05T04:53:01.063Z,95.40
2023-05-05T04:54:04.780Z,94.37
2023-05-05T04:55:10.248Z,94.84
2023-05-05T04:56:12.416Z,94.47
2023-05-05T04:57:16.705Z,94.54
2023-05-05T04:58:19.114Z,94.25
2023-05-05T04:59:22.821Z,93.00
2023-05-05T05:00:25.592Z,94.35
2023-05-05T05:01:29.639Z,94.68
2023-05-05T05:02:33.142Z,94.24
2023-05-05T05:03:37.567Z,94.12
2023-05-05T05:04:41.082Z,94.46
2023-05-05T05:05:47.312Z,94.43
2023-05-05T05:06:52.363Z,95.43
2023-05-05T05:07:55.784Z,94.85
2023-05-05T05:09:00.417Z,95.06
2023-05-05T05:10:03.745Z,94.10
2023-05-05T05:11:09.315Z,94.81
2023-05-05T05:12:12.193Z,93.90
2023-05-05T05:13:15.167Z,92.63
2023-05-05T05:14:19.100Z,92.44
2023-05-05T05:15:22.715Z,92.11
2023-05-05T05:16:26.836Z,91.47
2023-05-05T05:17:32.095Z,90.56
2023-05-05T05:18:35.940Z,89.61
2023-05-05T05:19:39.865Z,88.95
2023-05-05T05:20:44.099Z,89.70
2023-05-05T05:21:47.792Z,89.02
2023-05-05T05:22:52.048Z,89.26
2023-05-05T05:24:00.463Z,89.21
2023-05-05T05:25:03.969Z,88.59
2023-05-05T05:26:06.937Z,88.55
2023-05-05T05:27:10.667Z,87.34
2023-05-05T05:28:14.744Z,86.42
2023-05-05T05:29:28.851Z,86.20
2023-05-05T05:30:34.663Z,85.54
2023-05-05T05:31:39.857Z,84.54
2023-05-05T05:32:45.245Z,85.04
2023-05-05T05:33:48.720Z,84.41
2023-05-05T05:34:51.077Z,84.42
2023-05-05T05:35:56.565Z,83.12
2023-05-05T05:37:00.853Z,83.70
2023-05-05T05:38:04.451Z,83.34
2023-05-05T05:39:08.041Z,83.47
2023-05-05T05:41:25.058Z,82.57
2023-05-05T05:42:27.843Z,82.99
2023-05-05T05:43:31.333Z,82.38
2023-05-05T05:44:35.017Z,81.95
2023-05-05T05:45:37.675Z,82.48
2023-05-05T05:46:42.334Z,81.69
2023-05-05T05:47:46.023Z,80.85
2023-05-05T05:48:48.660Z,80.69
2023-05-05T05:49:52.153Z,80.38
2023-05-05T05:50:57.136Z,79.03
2023-05-05T05:52:01.031Z,76.72
2023-05-05T05:53:04.756Z,74.83
2023-05-05T05:54:07.832Z,74.86
2023-05-05T05:55:10.621Z,74.77
2023-05-05T05:56:14.031Z,74.09
2023-05-05T05:57:17.635Z,71.54
2023-05-05T05:58:22.904Z,68.60
2023-05-05T05:59:26.625Z,67.16
2023-05-05T06:00:30.148Z,64.70
2023-05-05T06:01:36.462Z,60.33
2023-05-05T06:02:41.366Z,57.29
2023-05-05T06:03:47.717Z,56.88
2023-05-05T06:04:51.769Z,58.68
2023-05-05T06:05:56.011Z,60.40
2023-05-05T06:06:59.385Z,62.31
2023-05-05T06:08:02.918Z,61.25
2023-05-05T06:09:07.050Z,62.46
2023-05-05T06:10:26.414Z,64.78
2023-05-05T06:11:20.309Z,66.15
2023-05-05T06:12:24.136Z,66.04
2023-05-05T06:13:26.628Z,63.47
2023-05-05T06:14:30.310Z,64.01
2023-05-05T06:15:33.738Z,59.68
2023-05-05T06:16:37.216Z,57.26
2023-05-05T06:17:42.635Z,57.85
2023-05-05T06:18:46.107Z,59.33
2023-05-05T06:19:49.973Z,60.11
2023-05-05T06:20:54.472Z,61.14
2023-05-05T06:21:59.640Z,61.41
2023-05-05T06:23:03.886Z,60.18
2023-05-05T06:24:08.958Z,58.95
2023-05-05T06:25:12.669Z,57.84
2023-05-05T06:26:16.706Z,56.17
2023-05-05T06:27:19.985Z,56.17
2023-05-05T06:28:22.352Z,55.39
2023-05-05T06:29:27.635Z,55.15
2023-05-05T06:30:32.284Z,53.49
2023-05-05T06:31:36.579Z,52.03
2023-05-05T06:32:40.910Z,51.13
2023-05-05T06:33:45.043Z,51.36
2023-05-05T06:34:50.172Z,51.22
2023-05-05T06:35:55.658Z,52.28
2023-05-05T06:36:59.211Z,53.73
2023-05-05T06:38:02.566Z,54.63
2023-05-05T06:39:05.964Z,55.39
2023-05-05T06:40:11.152Z,55.75
2023-05-05T06:41:15.684Z,55.66
2023-05-05T06:42:18.891Z,55.75
2023-05-05T06:43:22.810Z,55.53
2023-05-05T06:44:28.306Z,56.95
2023-05-05T06:45:32.982Z,55.99
2023-05-05T06:46:36.976Z,52.04
2023-05-05T06:47:40.135Z,49.04
2023-05-05T06:48:42.845Z,46.16
2023-05-05T06:49:47.490Z,42.59
2023-05-05T06:50:50.673Z,42.31
2023-05-05T06:51:53.970Z,42.81
2023-05-05T06:53:00.111Z,41.38
2023-05-05T06:54:05.060Z,43.29
2023-05-05T06:55:10.336Z,43.52
2023-05-05T06:56:13.632Z,42.80
2023-05-05T06:57:17.144Z,45.25
2023-05-05T06:58:22.195Z,46.03
2023-05-05T06:59:25.398Z,44.05
2023-05-05T07:00:30.844Z,43.50
2023-05-05T07:01:33.877Z,44.22
2023-05-05T07:02:36.693Z,40.73
2023-05-05T07:03:40.270Z,39.81
2023-05-05T07:04:44.604Z,39.08
2023-05-05T07:05:47.404Z,38.95
2023-05-05T07:06:49.621Z,40.08
2023-05-05T07:07:54.529Z,42.74
2023-05-05T07:08:58.401Z,43.25
2023-05-05T07:10:02.855Z,43.69
2023-05-05T07:11:06.678Z,44.62
2023-05-05T07:12:11.519Z,45.62
2023-05-05T07:13:18.816Z,46.81
2023-05-05T07:14:24.361Z,44.51
2023-05-05T07:15:29.539Z,45.74
2023-05-05T07:16:35.262Z,45.61
2023-05-05T07:17:39.671Z,43.49
2023-05-05T07:18:44.786Z,44.94
2023-05-05T07:19:48.083Z,45.30
2023-05-05T07:20:51.499Z,45.27
2023-05-05T07:21:55.717Z,44.36
2023-05-05T07:22:59.232Z,44.03
2023-05-05T07:24:06.023Z,41.68
2023-05-05T07:25:09.797Z,41.68
2023-05-05T07:26:13.289Z,39.63
2023-05-05T07:27:16.186Z,38.97
2023-05-05T07:28:19.881Z,36.73
2023-05-05T07:29:22.348Z,35.69
2023-05-05T07:30:26.498Z,33.96
2023-05-05T07:31:30.100Z,33.07
2023-05-05T07:32:32.466Z,35.45
2023-05-05T07:33:35.629Z,34.56
2023-05-05T07:34:40.587Z,35.59
2023-05-05T07:35:44.214Z,37.40
2023-05-05T07:36:50.483Z,38.32
2023-05-05T07:37:56.112Z,37.65
2023-05-05T07:38:59.530Z,36.50
2023-05-05T07:40:02.917Z,37.70
2023-05-05T07:41:05.999Z,37.66
2023-05-05T07:42:10.048Z,37.47
2023-05-05T07:43:13.033Z,36.69
2023-05-05T07:44:17.576Z,36.67
2023-05-05T07:45:20.395Z,37.53
2023-05-05T07:46:23.966Z,39.57
2023-05-05T07:47:26.641Z,41.25
2023-05-05T07:48:30.043Z,40.60
2023-05-05T07:49:34.380Z,40.41
2023-05-05T07:50:39.901Z,40.34
2023-05-05T07:51:45.977Z,40.67
2023-05-05T07:52:53.943Z,39.31
2023-05-05T07:53:54.748Z,38.29
2023-05-05T07:54:58.161Z,38.25
2023-05-05T07:56:00.833Z,37.31
2023-05-05T07:57:05.425Z,38.43
2023-05-05T07:58:09.092Z,38.42
2023-05-05T07:59:12.801Z,39.03
2023-05-05T08:00:18.606Z,39.18
2023-05-05T08:01:22.014Z,40.02
2023-05-05T08:02:24.467Z,41.04
2023-05-05T08:03:28.073Z,41.10
2023-05-05T08:04:31.694Z,40.54
2023-05-05T08:05:36.342Z,40.19
2023-05-05T08:06:40.055Z,41.18
2023-05-05T08:07:46.177Z,40.82
2023-05-05T08:08:50.088Z,41.28
2023-05-05T08:09:53.279Z,41.88
2023-05-05T08:10:59.702Z,40.42
2023-05-05T08:12:03.446Z,39.68
2023-05-05T08:13:07.305Z,40.22
2023-05-05T08:14:10.669Z,41.16
2023-05-05T08:15:13.938Z,41.99
2023-05-05T08:16:18.506Z,42.42
2023-05-05T08:17:21.721Z,42.04
2023-05-05T08:18:25.339Z,41.50
2023-05-05T08:19:29.577Z,39.97
2023-05-05T08:20:33.442Z,39.49
2023-05-05T08:21:37.384Z,40.50
2023-05-05T08:22:43.152Z,40.53
2023-05-05T08:23:45.539Z,40.86
2023-05-05T08:24:48.939Z,40.10
2023-05-05T08:25:54.056Z,39.71
2023-05-05T08:26:57.619Z,41.39
2023-05-05T08:28:04.588Z,41.96
2023-05-05T08:29:08.187Z,41.71
2023-05-05T08:30:15.033Z,41.92
2023-05-05T08:31:17.827Z,41.71
2023-05-05T08:32:21.188Z,41.50
2023-05-05T08:33:25.663Z,41.60
2023-05-05T08:34:28.367Z,42.00
2023-05-05T08:35:34.060Z,42.29
2023-05-05T08:36:36.573Z,42.43
2023-05-05T08:37:40.194Z,42.31
2023-05-05T08:38:42.437Z,42.65
2023-05-05T08:39:45.962Z,42.93
2023-05-05T08:40:50.498Z,43.68
2023-05-05T08:41:53.880Z,43.29
2023-05-05T08:42:56.140Z,43.17
2023-05-05T08:44:01.852Z,42.90
2023-05-05T08:45:06.614Z,42.73
2023-05-05T08:46:13.929Z,42.51
2023-05-05T08:47:17.437Z,43.34
2023-05-05T08:48:21.611Z,43.58
2023-05-05T08:49:27.613Z,42.19
2023-05-05T08:50:31.857Z,43.08
2023-05-05T08:51:37.349Z,43.15
2023-05-05T08:52:44.790Z,43.41
2023-05-05T08:54:01.278Z,42.60
2023-05-05T08:55:17.820Z,42.05
2023-05-05T08:56:24.788Z,41.87
2023-05-05T08:57:35.083Z,41.02
2023-05-05T08:58:38.911Z,41.06
2023-05-05T08:59:47.176Z,41.23
2023-05-05T09:00:51.276Z,41.46
2023-05-05T09:01:56.110Z,40.67
2023-05-05T09:03:00.545Z,40.38
2023-05-05T09:04:04.784Z,40.28
2023-05-05T09:05:08.360Z,40.31
2023-05-05T09:06:14.843Z,40.57
2023-05-05T09:07:18.521Z,39.27
2023-05-05T09:08:23.946Z,39.38
2023-05-05T09:09:27.147Z,39.05
2023-05-05T09:10:32.387Z,39.82
2023-05-05T09:11:39.738Z,39.96
2023-05-05T09:12:45.081Z,40.35
2023-05-05T09:13:48.850Z,40.32
2023-05-05T09:14:52.367Z,40.79
2023-05-05T09:15:55.547Z,40.59
2023-05-05T09:16:59.997Z,40.64
2023-05-05T09:18:05.411Z,40.95
2023-05-05T09:19:08.890Z,40.85
2023-05-05T09:20:13.755Z,39.38
2023-05-05T09:21:22.561Z,39.04
2023-05-05T09:22:42.402Z,38.44
2023-05-05T09:24:07.431Z,39.00
2023-05-05T09:25:07.797Z,39.27
2023-05-05T09:26:11.702Z,39.99
2023-05-05T09:27:24.771Z,40.04
2023-05-05T09:28:27.003Z,39.22
2023-05-05T09:29:30.360Z,37.20
2023-05-05T09:30:35.861Z,37.12
2023-05-05T09:31:39.466Z,37.14
2023-05-05T09:32:49.696Z,36.39
2023-05-05T09:33:52.324Z,36.28
2023-05-05T09:35:00.154Z,36.44
2023-05-05T09:36:03.825Z,35.95
2023-05-05T09:37:11.191Z,35.81
2023-05-05T09:38:14.360Z,35.55
2023-05-05T09:39:18.723Z,35.73
2023-05-05T09:40:24.633Z,35.36
2023-05-05T09:41:37.545Z,34.28
2023-05-05T09:42:41.981Z,34.21
2023-05-05T09:43:48.718Z,34.10
2023-05-05T09:44:50.967Z,34.80
2023-05-05T09:45:58.252Z,34.53
2023-05-05T09:47:03.778Z,35.03
2023-05-05T09:48:07.366Z,34.37
2023-05-05T09:49:16.261Z,34.16
2023-05-05T09:50:23.347Z,34.14
2023-05-05T09:51:30.276Z,34.10
2023-05-05T09:52:36.308Z,34.42
2023-05-05T09:53:42.957Z,35.21
2023-05-05T09:54:49.008Z,35.58
2023-05-05T09:55:53.219Z,35.80
2023-05-05T09:56:58.044Z,35.42
2023-05-05T09:58:20.405Z,35.23
2023-05-05T09:59:24.785Z,35.42
2023-05-05T10:00:35.929Z,35.28
2023-05-05T10:01:40.799Z,35.49
2023-05-05T10:02:44.341Z,35.68
2023-05-05T10:03:54.642Z,35.67
2023-05-05T10:05:05.700Z,36.56
2023-05-05T10:06:09.207Z,36.23
2023-05-05T10:07:26.512Z,35.45
2023-05-05T10:08:33.237Z,35.03
2023-05-05T10:09:36.972Z,35.26
2023-05-05T10:10:47.984Z,35.55
2023-05-05T10:11:52.550Z,35.90
2023-05-05T10:12:58.988Z,36.07
2023-05-05T10:14:04.422Z,35.67
2023-05-05T10:15:10.676Z,36.17
2023-05-05T10:16:14.850Z,35.54
2023-05-05T10:17:23.421Z,34.07
2023-05-05T10:18:29.004Z,33.94
2023-05-05T10:19:36.866Z,34.76
2023-05-05T10:20:42.113Z,35.59
2023-05-05T10:21:52.972Z,36.05
2023-05-05T10:22:56.736Z,36.21
2023-05-05T10:24:14.146Z,36.08
2023-05-05T10:25:20.551Z,36.67
2023-05-05T10:26:23.021Z,36.42
2023-05-05T10:27:31.575Z,35.09
2023-05-05T10:29:55.161Z,35.77
2023-05-05T10:31:02.068Z,36.15
2023-05-05T10:32:33.512Z,37.02
2023-05-05T10:33:32.205Z,36.80
2023-05-05T10:34:32.890Z,38.08
2023-05-05T10:35:38.263Z,36.78
2023-05-05T10:36:43.167Z,36.94
2023-05-05T10:37:47.686Z,37.58
2023-05-05T10:38:54.010Z,37.34
2023-05-05T10:39:58.561Z,37.14
2023-05-05T10:41:02.648Z,37.60
2023-05-05T10:42:05.171Z,38.18
2023-05-05T10:43:11.699Z,38.09
2023-05-05T10:44:15.611Z,38.13
2023-05-05T10:45:18.746Z,38.00
2023-05-05T10:46:22.767Z,37.05
2023-05-05T10:47:28.040Z,36.91
2023-05-05T10:48:42.292Z,37.96
2023-05-05T10:49:50.432Z,36.73
2023-05-05T10:50:58.581Z,36.38
2023-05-05T10:52:09.930Z,36.66
2023-05-05T10:53:21.252Z,37.06
2023-05-05T10:54:34.666Z,37.58
2023-05-05T10:55:50.448Z,38.13
2023-05-05T10:56:55.209Z,37.24
2023-05-05T10:57:58.678Z,36.53
2023-05-05T10:59:02.140Z,36.26
2023-05-05T11:00:06.552Z,35.79
2023-05-05T11:01:09.043Z,36.01
2023-05-05T11:02:24.188Z,36.50
2023-05-05T11:03:28.062Z,35.91
2023-05-05T11:04:31.814Z,35.31
2023-05-05T11:05:35.211Z,36.72
2023-05-05T11:06:39.650Z,36.08
2023-05-05T11:07:43.273Z,36.42
2023-05-05T11:08:46.784Z,35.42
2023-05-05T11:09:57.412Z,35.43
2023-05-05T11:11:00.265Z,36.31
2023-05-05T11:12:04.559Z,35.26
2023-05-05T11:13:09.320Z,35.02
2023-05-05T11:14:17.249Z,34.90
2023-05-05T11:15:24.316Z,35.00
2023-05-05T11:16:29.952Z,34.95
2023-05-05T11:17:38.025Z,35.11
2023-05-05T11:18:43.235Z,35.56
2023-05-05T11:19:46.470Z,35.23
2023-05-05T11:20:54.889Z,35.83
2023-05-05T11:22:02.241Z,34.15
2023-05-05T11:23:07.654Z,34.10
2023-05-05T11:24:21.808Z,34.13
2023-05-05T11:25:45.793Z,34.28
2023-05-05T11:26:51.679Z,34.34
2023-05-05T11:28:13.255Z,34.40
2023-05-05T11:29:18.307Z,34.71
2023-05-05T11:30:20.677Z,34.10
2023-05-05T11:31:26.148Z,34.15
2023-05-05T11:32:29.489Z,34.64
2023-05-05T11:33:33.710Z,35.09
2023-05-05T11:34:38.566Z,35.09
2023-05-05T11:36:05.726Z,34.51
2023-05-05T11:37:09.391Z,35.21
2023-05-05T11:38:13.516Z,34.85
2023-05-05T11:39:25.815Z,34.78
2023-05-05T11:40:31.084Z,35.07
2023-05-05T11:41:36.640Z,35.02
2023-05-05T11:42:40.057Z,33.92
2023-05-05T11:43:43.053Z,34.32
2023-05-05T11:44:48.927Z,34.75
2023-05-05T11:45:54.917Z,35.09
2023-05-05T11:47:04.336Z,34.19
2023-05-05T11:48:28.443Z,34.58
2023-05-05T11:49:37.415Z,35.04
2023-05-05T11:50:41.590Z,34.11
2023-05-05T11:51:44.976Z,34.35
2023-05-05T11:52:47.551Z,33.91
2023-05-05T11:53:51.158Z,34.29
2023-05-05T11:54:55.973Z,34.37
2023-05-05T11:56:08.809Z,34.80
2023-05-05T11:57:12.641Z,34.08
2023-05-05T11:58:18.546Z,33.45
2023-05-05T11:59:25.067Z,33.14
2023-05-05T12:00:35.526Z,33.88
2023-05-05T12:01:42.298Z,33.76
2023-05-05T12:02:45.968Z,33.29
2023-05-05T12:03:49.913Z,33.38
2023-05-05T12:04:52.997Z,33.45
2023-05-05T12:05:56.548Z,33.25
2023-05-05T12:07:00.313Z,33.93
2023-05-05T12:08:03.466Z,33.11
2023-05-05T12:09:17.780Z,32.75
2023-05-05T12:10:24.231Z,33.33
2023-05-05T12:11:27.705Z,33.71
2023-05-05T12:12:38.105Z,33.87
2023-05-05T12:13:42.507Z,33.72
2023-05-05T12:14:48.447Z,33.54
2023-05-05T12:15:53.936Z,33.48
2023-05-05T12:16:58.052Z,33.71
2023-05-05T12:18:03.522Z,34.83
2023-05-05T12:19:08.076Z,34.58
2023-05-05T12:20:12.519Z,34.35
2023-05-05T12:22:28.820Z,32.95
2023-05-05T12:23:33.880Z,33.20
2023-05-05T12:24:40.331Z,33.89
2023-05-05T12:25:44.026Z,33.50
2023-05-05T12:26:48.319Z,33.99
2023-05-05T12:27:54.654Z,34.32
2023-05-05T12:29:00.284Z,34.76
2023-05-05T12:31:18.291Z,34.30
2023-05-05T12:32:22.662Z,34.08
2023-05-05T12:33:25.460Z,33.53
2023-05-05T12:34:29.195Z,34.04
2023-05-05T12:35:35.663Z,32.90
2023-05-05T12:36:40.852Z,32.49
2023-05-05T12:37:44.643Z,32.90
2023-05-05T12:38:46.993Z,32.21
2023-05-05T12:39:51.120Z,33.14
2023-05-05T12:40:56.329Z,32.60
2023-05-05T12:42:04.598Z,33.86
2023-05-05T12:43:07.279Z,34.08
2023-05-05T12:44:10.249Z,34.16
2023-05-05T12:45:15.642Z,34.57
2023-05-05T12:46:19.318Z,34.53
2023-05-05T12:47:35.847Z,34.17
2023-05-05T12:48:44.451Z,34.02
2023-05-05T12:49:52.686Z,34.07
2023-05-05T12:50:56.671Z,33.76
2023-05-05T12:52:02.189Z,33.61
2023-05-05T12:53:05.409Z,32.96
2023-05-05T12:54:10.531Z,33.10
2023-05-05T12:55:14.146Z,32.94
2023-05-05T12:56:37.391Z,32.85
2023-05-05T12:57:42.888Z,33.97
2023-05-05T12:58:49.211Z,32.71
2023-05-05T12:59:53.539Z,33.25
2023-05-05T13:01:09.597Z,33.44
2023-05-05T13:02:11.972Z,34.04
2023-05-05T13:03:19.088Z,33.56
2023-05-05T13:04:24.059Z,33.47
2023-05-05T13:05:31.221Z,34.96
2023-05-05T13:06:34.939Z,33.77
2023-05-05T13:07:41.046Z,33.67
2023-05-05T13:08:44.558Z,34.04
2023-05-05T13:09:51.513Z,34.34
2023-05-05T13:11:02.491Z,34.44
2023-05-05T13:12:08.047Z,33.76
2023-05-05T13:13:10.793Z,34.30
2023-05-05T13:14:13.242Z,33.69
2023-05-05T13:15:16.971Z,34.11
2023-05-05T13:16:22.899Z,33.74
2023-05-05T13:17:28.281Z,33.52
2023-05-05T13:18:30.718Z,34.26
2023-05-05T13:19:37.431Z,34.26
2023-05-05T13:20:41.436Z,33.70
2023-05-05T13:21:43.960Z,33.45
2023-05-05T13:22:47.125Z,34.45
2023-05-05T13:23:50.977Z,33.58
2023-05-05T13:24:54.242Z,33.61
2023-05-05T13:25:57.553Z,34.09
2023-05-05T13:27:00.958Z,34.86
2023-05-05T13:28:05.288Z,34.36
2023-05-05T13:29:09.210Z,34.45
2023-05-05T13:30:13.656Z,34.34
2023-05-05T13:31:18.254Z,34.36
2023-05-05T13:32:20.662Z,34.23
2023-05-05T13:33:22.981Z,35.13
2023-05-05T13:34:27.382Z,34.04
2023-05-05T13:35:31.288Z,34.63
2023-05-05T13:36:37.198Z,34.76
2023-05-05T13:37:42.468Z,34.90
2023-05-05T13:38:44.757Z,34.68
2023-05-05T13:39:48.349Z,33.65
2023-05-05T13:40:50.796Z,33.90
2023-05-05T13:41:54.088Z,34.53
2023-05-05T13:42:56.557Z,34.86
2023-05-05T13:44:00.079Z,34.08
2023-05-05T13:45:03.781Z,33.70
2023-05-05T13:46:19.086Z,33.88
2023-05-05T13:47:14.684Z,33.92
2023-05-05T13:48:18.364Z,33.92
2023-05-05T13:49:21.776Z,33.85
2023-05-05T13:50:25.469Z,33.58
2023-05-05T13:51:29.298Z,33.70
2023-05-05T13:52:33.597Z,33.43
2023-05-05T13:53:37.356Z,33.25
2023-05-05T13:54:43.506Z,33.18
2023-05-05T13:55:46.867Z,33.00
2023-05-05T13:56:50.048Z,33.27
2023-05-05T13:57:54.912Z,33.60
2023-05-05T13:58:58.500Z,33.90
2023-05-05T14:00:00.920Z,33.54
2023-05-05T14:01:17.847Z,33.83
2023-05-05T14:02:21.684Z,33.93
2023-05-05T14:03:24.491Z,34.01
2023-05-05T14:04:29.885Z,34.38
2023-05-05T14:05:34.412Z,34.34